Voca, Texas
Current Conditions -  °F | °C
As of 8:35 PM on Sunday 23 Nov 2014 (Local Time) from KBBD Reporting Station
Clear Clear  
Wind Chill: 55°   Ceiling: Unl
Heat Index: 55°   Visibility: 10mi
Dew Point: 36°   Wind: 23mph
Humidity: 47%   Direction: 350°N
Pressure: 29.8"   Gusts: NA
Location:  31.01°N, 99.19°W
Report Text: KBBD 240235Z AUTO 35020KT 10SM CLR 13/02 A2980 RMK
Loading
Personal Weather Stations






























Interactive Weather Map New forecast layout! Learn more

10-Day Weather Forecast

Advertisements
Track Severe Weather on mobile